SDM2350 UNKL-UIII
Flight info
| Callsign | SDM2350 |
|---|---|
| Flight time | N/A |
| Altitude | 39000 |
| Route | ATREG R497 RO A817 RUSAM G490 NH |
| Aircraft | SU95/M-SDE3GILORVW/S |
Departure
| Time | N/A |
|---|---|
| Airport | Krasnoyarsk International Airport (UNKL) |
Arrival
| Time | 2026-05-09 12:29 |
|---|---|
| Airport | Irkutsk International Airport (UIII) |
| Time | Latitude | Longitude | Altitude | Speed | Heading |
|---|---|---|---|---|---|
| 2026-05-09 11:58 | 55.82058 | 93.78315 | 27016 ft | 454 kts | 102° |
| 2026-05-09 11:58 | 55.79440 | 94.00661 | 28881 ft | 472 kts | 102° |
| 2026-05-09 11:58 | 55.76681 | 94.23811 | 30643 ft | 485 kts | 101° |
| 2026-05-09 11:59 | 55.73808 | 94.47497 | 32193 ft | 497 kts | 101° |
| 2026-05-09 11:59 | 55.70825 | 94.71669 | 33881 ft | 502 kts | 101° |
| 2026-05-09 11:59 | 55.67803 | 94.95733 | 35513 ft | 496 kts | 101° |
| 2026-05-09 11:59 | 55.64758 | 95.19571 | 36849 ft | 496 kts | 101° |
| 2026-05-09 12:00 | 55.61672 | 95.43339 | 38043 ft | 495 kts | 101° |
| 2026-05-09 12:00 | 55.58546 | 95.67025 | 38916 ft | 496 kts | 101° |
| 2026-05-09 12:00 | 55.55375 | 95.90669 | 38910 ft | 494 kts | 102° |
| 2026-05-09 12:01 | 55.46899 | 96.36974 | 38952 ft | 506 kts | 114° |
| 2026-05-09 12:01 | 55.35327 | 96.81644 | 38920 ft | 500 kts | 114° |
| 2026-05-09 12:02 | 55.23668 | 97.25720 | 38897 ft | 495 kts | 114° |
| 2026-05-09 12:02 | 55.11936 | 97.69232 | 38891 ft | 494 kts | 115° |
| 2026-05-09 12:02 | 55.07244 | 97.91561 | 38900 ft | 490 kts | 95° |
| 2026-05-09 12:03 | 55.04988 | 98.15069 | 38910 ft | 494 kts | 99° |
| 2026-05-09 12:03 | 54.99140 | 98.62155 | 38941 ft | 499 kts | 99° |
| 2026-05-09 12:04 | 54.93063 | 99.09404 | 38943 ft | 500 kts | 100° |
| 2026-05-09 12:04 | 54.86834 | 99.56282 | 38927 ft | 495 kts | 100° |
| 2026-05-09 12:05 | 54.80487 | 100.02566 | 38896 ft | 491 kts | 101° |
| 2026-05-09 12:05 | 54.73990 | 100.48534 | 38891 ft | 491 kts | 101° |
| 2026-05-09 12:06 | 54.67300 | 100.94490 | 38916 ft | 494 kts | 101° |
| 2026-05-09 12:06 | 54.60400 | 101.40526 | 38934 ft | 496 kts | 102° |
| 2026-05-09 12:07 | 54.53334 | 101.86357 | 38916 ft | 494 kts | 102° |
| 2026-05-09 12:07 | 54.46127 | 102.31832 | 38907 ft | 492 kts | 103° |
| 2026-05-09 12:08 | 54.38758 | 102.77091 | 38664 ft | 492 kts | 103° |
| 2026-05-09 12:08 | 54.35011 | 102.99653 | 37569 ft | 493 kts | 103° |
| 2026-05-09 12:08 | 54.29693 | 103.21106 | 36484 ft | 497 kts | 133° |
| 2026-05-09 12:08 | 54.17980 | 103.32787 | 35442 ft | 490 kts | 160° |
| 2026-05-09 12:09 | 54.05452 | 103.42111 | 33907 ft | 494 kts | 158° |
| 2026-05-09 12:09 | 53.92725 | 103.51875 | 30683 ft | 497 kts | 158° |
| 2026-05-09 12:09 | 53.80431 | 103.61243 | 28550 ft | 477 kts | 158° |
| 2026-05-09 12:10 | 53.45852 | 103.87256 | 21669 ft | 428 kts | 158° |
| 2026-05-09 12:10 | 53.38934 | 103.92402 | 20273 ft | 414 kts | 158° |
| 2026-05-09 12:10 | 53.35024 | 103.95302 | 19476 ft | 407 kts | 158° |
| 2026-05-09 12:11 | 53.32446 | 103.97213 | 18947 ft | 403 kts | 158° |
| 2026-05-09 12:11 | 53.29895 | 103.99101 | 18431 ft | 399 kts | 158° |
| 2026-05-09 12:11 | 53.27372 | 104.00966 | 18041 ft | 392 kts | 158° |
| 2026-05-09 12:11 | 53.24905 | 104.02788 | 17912 ft | 387 kts | 158° |
| 2026-05-09 12:12 | 53.23267 | 104.03995 | 17909 ft | 390 kts | 158° |
| 2026-05-09 12:12 | 53.20781 | 104.05825 | 17909 ft | 391 kts | 158° |
| 2026-05-09 12:12 | 53.18299 | 104.07649 | 17817 ft | 389 kts | 158° |
| 2026-05-09 12:12 | 53.15821 | 104.09470 | 17323 ft | 390 kts | 158° |
| 2026-05-09 12:13 | 53.13325 | 104.11301 | 16519 ft | 394 kts | 158° |
| 2026-05-09 12:13 | 53.10793 | 104.13158 | 15645 ft | 400 kts | 158° |
| 2026-05-09 12:13 | 53.08323 | 104.15284 | 15002 ft | 399 kts | 153° |
| 2026-05-09 12:13 | 53.05904 | 104.17488 | 14400 ft | 395 kts | 153° |
| 2026-05-09 12:14 | 53.03520 | 104.19734 | 13841 ft | 392 kts | 147° |
| 2026-05-09 12:14 | 53.01560 | 104.22779 | 13505 ft | 382 kts | 127° |
| 2026-05-09 12:14 | 52.99904 | 104.26125 | 13244 ft | 369 kts | 139° |
| 2026-05-09 12:14 | 52.97788 | 104.28403 | 12988 ft | 362 kts | 157° |
| 2026-05-09 12:15 | 52.95464 | 104.30027 | 12722 ft | 362 kts | 161° |
| 2026-05-09 12:15 | 52.93130 | 104.31542 | 12469 ft | 360 kts | 160° |
| 2026-05-09 12:15 | 52.90824 | 104.33127 | 12208 ft | 357 kts | 159° |
| 2026-05-09 12:15 | 52.88562 | 104.34783 | 11953 ft | 355 kts | 158° |
| 2026-05-09 12:16 | 52.86321 | 104.36488 | 11684 ft | 354 kts | 156° |
| 2026-05-09 12:16 | 52.84099 | 104.38215 | 11433 ft | 352 kts | 156° |
| 2026-05-09 12:16 | 52.81890 | 104.39945 | 11176 ft | 351 kts | 156° |
| 2026-05-09 12:16 | 52.79692 | 104.41668 | 10948 ft | 348 kts | 156° |
| 2026-05-09 12:17 | 52.77502 | 104.43381 | 10898 ft | 349 kts | 156° |
| 2026-05-09 12:17 | 52.75304 | 104.45097 | 10901 ft | 350 kts | 156° |
| 2026-05-09 12:17 | 52.73093 | 104.46775 | 10902 ft | 349 kts | 158° |
| 2026-05-09 12:17 | 52.70857 | 104.48343 | 10896 ft | 349 kts | 159° |
| 2026-05-09 12:18 | 52.68612 | 104.49876 | 10897 ft | 350 kts | 159° |
| 2026-05-09 12:18 | 52.66370 | 104.51410 | 10843 ft | 348 kts | 159° |
| 2026-05-09 12:18 | 52.64146 | 104.52943 | 10524 ft | 345 kts | 159° |
| 2026-05-09 12:18 | 52.61940 | 104.54471 | 10087 ft | 342 kts | 159° |
| 2026-05-09 12:19 | 52.59789 | 104.55967 | 9944 ft | 329 kts | 159° |
| 2026-05-09 12:19 | 52.57716 | 104.57409 | 9817 ft | 317 kts | 159° |
| 2026-05-09 12:19 | 52.55719 | 104.58797 | 9566 ft | 309 kts | 159° |
| 2026-05-09 12:19 | 52.53747 | 104.60164 | 9195 ft | 306 kts | 159° |
| 2026-05-09 12:20 | 52.51798 | 104.61513 | 8945 ft | 303 kts | 159° |
| 2026-05-09 12:20 | 52.49845 | 104.62862 | 8892 ft | 305 kts | 159° |
| 2026-05-09 12:20 | 52.47890 | 104.64212 | 8730 ft | 305 kts | 159° |
| 2026-05-09 12:20 | 52.45932 | 104.65564 | 8305 ft | 306 kts | 159° |
| 2026-05-09 12:21 | 52.43973 | 104.66916 | 7883 ft | 305 kts | 159° |
| 2026-05-09 12:21 | 52.42026 | 104.68258 | 7529 ft | 302 kts | 159° |
| 2026-05-09 12:21 | 52.40097 | 104.69587 | 7142 ft | 300 kts | 159° |
| 2026-05-09 12:21 | 52.38178 | 104.70907 | 6771 ft | 298 kts | 159° |
| 2026-05-09 12:22 | 52.36277 | 104.72214 | 6437 ft | 295 kts | 159° |
| 2026-05-09 12:22 | 52.34392 | 104.73509 | 6035 ft | 293 kts | 158° |
| 2026-05-09 12:22 | 52.32516 | 104.74795 | 5621 ft | 291 kts | 158° |
| 2026-05-09 12:22 | 52.30660 | 104.76066 | 5279 ft | 288 kts | 158° |
| 2026-05-09 12:23 | 52.28794 | 104.77208 | 4903 ft | 285 kts | 170° |
| 2026-05-09 12:23 | 52.26873 | 104.77126 | 4794 ft | 277 kts | 197° |
| 2026-05-09 12:23 | 52.25197 | 104.75651 | 4662 ft | 275 kts | 222° |
| 2026-05-09 12:23 | 52.23788 | 104.73552 | 4517 ft | 273 kts | 226° |
| 2026-05-09 12:24 | 52.22465 | 104.71432 | 4499 ft | 258 kts | 227° |
| 2026-05-09 12:24 | 52.21232 | 104.69455 | 4499 ft | 238 kts | 227° |
| 2026-05-09 12:24 | 52.20293 | 104.67435 | 4492 ft | 212 kts | 255° |
| 2026-05-09 12:24 | 52.20166 | 104.65198 | 4497 ft | 192 kts | 279° |
| 2026-05-09 12:25 | 52.20474 | 104.63074 | 4498 ft | 193 kts | 291° |
| 2026-05-09 12:25 | 52.20949 | 104.61078 | 4487 ft | 193 kts | 295° |
| 2026-05-09 12:25 | 52.21490 | 104.59065 | 4244 ft | 187 kts | 295° |
| 2026-05-09 12:25 | 52.21982 | 104.57213 | 3951 ft | 172 kts | 295° |
| 2026-05-09 12:26 | 52.22437 | 104.55506 | 3692 ft | 156 kts | 296° |
| 2026-05-09 12:26 | 52.22847 | 104.53965 | 3471 ft | 142 kts | 296° |
| 2026-05-09 12:26 | 52.23243 | 104.52485 | 3271 ft | 142 kts | 297° |
| 2026-05-09 12:26 | 52.23636 | 104.51014 | 3072 ft | 141 kts | 297° |
| 2026-05-09 12:27 | 52.24026 | 104.49547 | 2866 ft | 140 kts | 296° |
| 2026-05-09 12:27 | 52.24409 | 104.48108 | 2664 ft | 139 kts | 296° |
| 2026-05-09 12:27 | 52.24803 | 104.46640 | 2471 ft | 144 kts | 297° |
| 2026-05-09 12:27 | 52.25205 | 104.45153 | 2218 ft | 142 kts | 296° |
| 2026-05-09 12:28 | 52.25598 | 104.43690 | 2049 ft | 143 kts | 295° |
| 2026-05-09 12:28 | 52.25990 | 104.42182 | 1851 ft | 140 kts | 295° |
| 2026-05-09 12:28 | 52.26378 | 104.40726 | 1682 ft | 144 kts | 295° |
| 2026-05-09 12:28 | 52.26732 | 104.39409 | 1637 ft | 100 kts | 293° |
| 2026-05-09 12:29 | 52.26928 | 104.38676 | 1623 ft | 42 kts | 294° |
| 2026-05-09 12:29 | 52.26996 | 104.38419 | 1615 ft | 22 kts | 292° |
| 2026-05-09 12:29 | 52.27056 | 104.38185 | 1611 ft | 23 kts | 294° |
| 2026-05-09 12:29 | 52.27123 | 104.37940 | 1608 ft | 24 kts | 293° |
| 2026-05-09 12:30 | 52.27172 | 104.37744 | 1610 ft | 0 kts | 292° |
| 2026-05-09 12:30 | 52.27180 | 104.37708 | 1603 ft | 6 kts | 289° |
| 2026-05-09 12:30 | 52.27131 | 104.37518 | 1598 ft | 13 kts | 234° |
| 2026-05-09 12:31 | 52.27104 | 104.37456 | 1596 ft | 0 kts | 234° |
| 2026-05-09 12:31 | 52.27098 | 104.37442 | 1596 ft | 4 kts | 234° |
| 2026-05-09 12:32 | 52.27075 | 104.37391 | 1595 ft | 7 kts | 234° |
| 2026-05-09 12:32 | 52.27038 | 104.37306 | 1594 ft | 11 kts | 234° |
| 2026-05-09 12:32 | 52.26988 | 104.37191 | 1593 ft | 14 kts | 232° |
| 2026-05-09 12:32 | 52.26935 | 104.37079 | 1591 ft | 11 kts | 251° |
| 2026-05-09 12:33 | 52.26956 | 104.36937 | 1588 ft | 15 kts | 289° |
| 2026-05-09 12:33 | 52.26997 | 104.36757 | 1584 ft | 19 kts | 291° |
| 2026-05-09 12:33 | 52.27033 | 104.36585 | 1582 ft | 2 kts | 289° |
| 2026-05-09 12:33 | 52.27039 | 104.36554 | 1581 ft | 4 kts | 289° |
| 2026-05-09 12:34 | 52.27051 | 104.36502 | 1581 ft | 6 kts | 290° |
| 2026-05-09 12:34 | 52.27068 | 104.36428 | 1581 ft | 8 kts | 290° |
| 2026-05-09 12:34 | 52.27087 | 104.36334 | 1581 ft | 10 kts | 288° |
| 2026-05-09 12:34 | 52.27099 | 104.36270 | 1581 ft | 4 kts | 299° |
| 2026-05-09 12:35 | 52.27126 | 104.36252 | 1581 ft | 5 kts | 354° |
| 2026-05-09 12:35 | 52.27136 | 104.36250 | 1581 ft | 1 kts | 356° |
| 2026-05-09 12:35 | 52.27137 | 104.36250 | 1581 ft | 0 kts | 356° |